sensor_id;sensor_type;location;lat;lon;timestamp;pressure;altitude;pressure_sealevel;temperature;humidity
75008;BME280;63554;48.940;12.050;2023-09-19T00:02:14;96991.81;;;14.41;100.00
75008;BME280;63554;48.940;12.050;2023-09-19T00:06:17;96992.63;;;14.41;100.00
75008;BME280;63554;48.940;12.050;2023-09-19T00:10:20;96997.28;;;14.41;100.00
75008;BME280;63554;48.940;12.050;2023-09-19T00:14:24;96992.16;;;14.44;100.00
75008;BME280;63554;48.940;12.050;2023-09-19T00:18:29;96991.63;;;14.48;100.00
75008;BME280;63554;48.940;12.050;2023-09-19T00:22:33;96992.19;;;14.50;100.00
75008;BME280;63554;48.940;12.050;2023-09-19T00:26:38;96991.13;;;14.51;100.00
75008;BME280;63554;48.940;12.050;2023-09-19T00:30:42;96998.31;;;14.57;100.00
75008;BME280;63554;48.940;12.050;2023-09-19T00:34:46;96997.78;;;14.60;100.00
75008;BME280;63554;48.940;12.050;2023-09-19T00:38:49;97002.94;;;14.56;100.00
75008;BME280;63554;48.940;12.050;2023-09-19T00:42:57;97003.66;;;14.52;100.00
75008;BME280;63554;48.940;12.050;2023-09-19T00:47:00;97008.53;;;14.50;100.00
75008;BME280;63554;48.940;12.050;2023-09-19T00:51:05;96998.66;;;14.43;100.00
75008;BME280;63554;48.940;12.050;2023-09-19T00:55:09;96995.03;;;14.38;100.00
75008;BME280;63554;48.940;12.050;2023-09-19T00:59:12;96996.94;;;14.37;100.00
75008;BME280;63554;48.940;12.050;2023-09-19T01:03:14;97000.00;;;14.41;100.00
75008;BME280;63554;48.940;12.050;2023-09-19T01:07:19;96997.84;;;14.43;100.00
75008;BME280;63554;48.940;12.050;2023-09-19T01:11:28;97004.66;;;14.46;100.00
75008;BME280;63554;48.940;12.050;2023-09-19T01:15:41;96995.69;;;14.45;100.00
75008;BME280;63554;48.940;12.050;2023-09-19T01:20:14;97006.34;;;14.47;100.00
75008;BME280;63554;48.940;12.050;2023-09-19T01:24:55;97013.19;;;14.54;100.00
75008;BME280;63554;48.940;12.050;2023-09-19T01:29:23;97018.75;;;14.59;100.00
75008;BME280;63554;48.940;12.050;2023-09-19T01:33:56;97021.56;;;14.65;100.00
75008;BME280;63554;48.940;12.050;2023-09-19T01:38:00;97023.56;;;14.74;100.00
75008;BME280;63554;48.940;12.050;2023-09-19T01:42:08;97032.88;;;14.78;100.00
75008;BME280;63554;48.940;12.050;2023-09-19T01:46:19;97021.75;;;14.80;100.00
75008;BME280;63554;48.940;12.050;2023-09-19T01:50:29;97020.88;;;14.79;100.00
75008;BME280;63554;48.940;12.050;2023-09-19T01:54:38;97028.50;;;14.77;100.00
75008;BME280;63554;48.940;12.050;2023-09-19T01:58:46;97022.22;;;14.77;100.00
75008;BME280;63554;48.940;12.050;2023-09-19T02:02:51;97023.63;;;14.79;100.00
75008;BME280;63554;48.940;12.050;2023-09-19T02:06:58;97029.91;;;14.80;100.00
75008;BME280;63554;48.940;12.050;2023-09-19T02:11:02;97034.50;;;14.79;100.00
75008;BME280;63554;48.940;12.050;2023-09-19T02:15:06;97030.41;;;14.77;100.00
75008;BME280;63554;48.940;12.050;2023-09-19T02:19:09;97039.91;;;14.74;100.00
75008;BME280;63554;48.940;12.050;2023-09-19T02:23:13;97030.63;;;14.70;100.00
75008;BME280;63554;48.940;12.050;2023-09-19T02:27:17;97034.97;;;14.71;100.00
75008;BME280;63554;48.940;12.050;2023-09-19T02:31:20;97038.25;;;14.73;100.00
75008;BME280;63554;48.940;12.050;2023-09-19T02:35:23;97031.75;;;14.74;100.00
75008;BME280;63554;48.940;12.050;2023-09-19T02:39:28;97026.03;;;14.76;100.00
75008;BME280;63554;48.940;12.050;2023-09-19T02:43:31;97029.63;;;14.81;100.00
75008;BME280;63554;48.940;12.050;2023-09-19T02:47:35;97035.34;;;14.80;100.00
75008;BME280;63554;48.940;12.050;2023-09-19T02:51:37;97042.19;;;14.82;100.00
75008;BME280;63554;48.940;12.050;2023-09-19T02:55:42;97048.69;;;14.81;100.00
75008;BME280;63554;48.940;12.050;2023-09-19T02:59:44;97040.25;;;14.78;100.00
75008;BME280;63554;48.940;12.050;2023-09-19T03:03:48;97044.59;;;14.79;100.00
75008;BME280;63554;48.940;12.050;2023-09-19T03:07:51;97060.69;;;14.80;100.00
75008;BME280;63554;48.940;12.050;2023-09-19T03:11:55;97070.78;;;14.80;100.00
75008;BME280;63554;48.940;12.050;2023-09-19T03:15:58;97069.69;;;14.81;100.00
75008;BME280;63554;48.940;12.050;2023-09-19T03:20:01;97077.84;;;14.81;100.00
75008;BME280;63554;48.940;12.050;2023-09-19T03:24:05;97078.94;;;14.80;100.00
75008;BME280;63554;48.940;12.050;2023-09-19T03:28:09;97076.22;;;14.80;100.00
75008;BME280;63554;48.940;12.050;2023-09-19T03:32:12;97083.31;;;14.81;100.00
75008;BME280;63554;48.940;12.050;2023-09-19T03:36:14;97082.25;;;14.82;100.00
75008;BME280;63554;48.940;12.050;2023-09-19T03:40:17;97082.81;;;14.84;100.00
75008;BME280;63554;48.940;12.050;2023-09-19T03:44:24;97094.78;;;14.83;100.00
75008;BME280;63554;48.940;12.050;2023-09-19T03:48:27;97090.69;;;14.86;100.00
75008;BME280;63554;48.940;12.050;2023-09-19T03:52:30;97099.16;;;14.84;100.00
75008;BME280;63554;48.940;12.050;2023-09-19T03:56:33;97095.41;;;14.90;100.00
75008;BME280;63554;48.940;12.050;2023-09-19T04:00:37;97085.81;;;14.88;100.00
75008;BME280;63554;48.940;12.050;2023-09-19T04:04:40;97087.59;;;14.99;100.00
75008;BME280;63554;48.940;12.050;2023-09-19T04:08:43;97102.81;;;14.95;100.00
75008;BME280;63554;48.940;12.050;2023-09-19T04:12:50;97108.78;;;14.92;100.00
75008;BME280;63554;48.940;12.050;2023-09-19T04:16:55;97101.59;;;14.86;100.00
75008;BME280;63554;48.940;12.050;2023-09-19T04:20:58;97109.22;;;14.83;100.00
75008;BME280;63554;48.940;12.050;2023-09-19T04:25:04;97104.84;;;14.82;100.00
75008;BME280;63554;48.940;12.050;2023-09-19T04:29:08;97104.84;;;14.82;100.00
75008;BME280;63554;48.940;12.050;2023-09-19T04:33:13;97111.63;;;14.80;100.00
75008;BME280;63554;48.940;12.050;2023-09-19T04:37:17;97121.19;;;14.82;100.00
75008;BME280;63554;48.940;12.050;2023-09-19T04:41:19;97122.00;;;14.83;100.00
75008;BME280;63554;48.940;12.050;2023-09-19T04:45:23;97121.53;;;14.86;100.00
75008;BME280;63554;48.940;12.050;2023-09-19T04:49:27;97111.75;;;14.90;100.00
75008;BME280;63554;48.940;12.050;2023-09-19T04:53:30;97126.69;;;14.88;100.00
75008;BME280;63554;48.940;12.050;2023-09-19T04:57:33;97130.03;;;14.90;100.00
75008;BME280;63554;48.940;12.050;2023-09-19T05:01:36;97136.78;;;14.87;100.00
75008;BME280;63554;48.940;12.050;2023-09-19T05:05:40;97133.81;;;14.89;100.00
75008;BME280;63554;48.940;12.050;2023-09-19T05:09:44;97134.38;;;14.91;100.00
75008;BME280;63554;48.940;12.050;2023-09-19T05:13:46;97139.81;;;14.91;100.00
75008;BME280;63554;48.940;12.050;2023-09-19T05:17:52;97136.59;;;14.94;100.00
75008;BME280;63554;48.940;12.050;2023-09-19T05:22:00;97140.16;;;14.94;100.00
75008;BME280;63554;48.940;12.050;2023-09-19T05:26:03;97142.34;;;14.97;100.00
75008;BME280;63554;48.940;12.050;2023-09-19T05:30:07;97151.63;;;14.96;100.00
75008;BME280;63554;48.940;12.050;2023-09-19T05:34:10;97153.53;;;14.96;100.00
75008;BME280;63554;48.940;12.050;2023-09-19T05:38:14;97158.97;;;14.96;100.00
75008;BME280;63554;48.940;12.050;2023-09-19T05:42:20;97162.59;;;15.01;100.00
75008;BME280;63554;48.940;12.050;2023-09-19T05:46:23;97157.41;;;15.00;100.00
75008;BME280;63554;48.940;12.050;2023-09-19T05:50:31;97159.03;;;15.01;100.00
75008;BME280;63554;48.940;12.050;2023-09-19T05:54:35;97165.81;;;14.98;100.00
75008;BME280;63554;48.940;12.050;2023-09-19T05:58:38;97163.91;;;14.99;100.00
75008;BME280;63554;48.940;12.050;2023-09-19T06:02:42;97160.59;;;14.97;100.00
75008;BME280;63554;48.940;12.050;2023-09-19T06:06:46;97172.09;;;14.99;100.00
75008;BME280;63554;48.940;12.050;2023-09-19T06:10:51;97179.44;;;14.98;100.00
75008;BME280;63554;48.940;12.050;2023-09-19T06:14:54;97179.69;;;14.97;100.00
75008;BME280;63554;48.940;12.050;2023-09-19T06:18:57;97178.44;;;15.05;100.00
75008;BME280;63554;48.940;12.050;2023-09-19T06:23:02;97182.94;;;15.16;100.00
75008;BME280;63554;48.940;12.050;2023-09-19T06:27:06;97192.75;;;15.17;100.00
75008;BME280;63554;48.940;12.050;2023-09-19T06:31:10;97201.31;;;15.26;100.00
75008;BME280;63554;48.940;12.050;2023-09-19T06:35:14;97203.09;;;15.37;100.00
75008;BME280;63554;48.940;12.050;2023-09-19T06:39:16;97214.56;;;15.61;100.00
75008;BME280;63554;48.940;12.050;2023-09-19T06:43:20;97219.91;;;15.73;100.00
75008;BME280;63554;48.940;12.050;2023-09-19T06:47:23;97224.78;;;15.71;100.00
75008;BME280;63554;48.940;12.050;2023-09-19T06:51:27;97230.81;;;15.73;100.00
75008;BME280;63554;48.940;12.050;2023-09-19T06:55:31;97233.78;;;15.71;100.00
75008;BME280;63554;48.940;12.050;2023-09-19T06:59:35;97221.47;;;15.69;100.00
75008;BME280;63554;48.940;12.050;2023-09-19T07:03:38;97235.19;;;15.74;100.00
75008;BME280;63554;48.940;12.050;2023-09-19T07:07:42;97232.13;;;15.70;100.00
75008;BME280;63554;48.940;12.050;2023-09-19T07:11:45;97235.56;;;15.82;100.00
75008;BME280;63554;48.940;12.050;2023-09-19T07:15:53;97239.13;;;16.10;100.00
75008;BME280;63554;48.940;12.050;2023-09-19T07:19:56;97245.03;;;16.29;98.37
75008;BME280;63554;48.940;12.050;2023-09-19T07:24:00;97236.50;;;16.53;97.57
75008;BME280;63554;48.940;12.050;2023-09-19T07:28:04;97249.38;;;16.57;96.09
75008;BME280;63554;48.940;12.050;2023-09-19T07:32:08;97233.72;;;16.80;94.31
75008;BME280;63554;48.940;12.050;2023-09-19T07:36:11;97244.59;;;17.12;91.66
75008;BME280;63554;48.940;12.050;2023-09-19T07:40:15;97253.03;;;17.06;92.05
75008;BME280;63554;48.940;12.050;2023-09-19T07:44:18;97271.53;;;17.36;89.84
75008;BME280;63554;48.940;12.050;2023-09-19T07:48:22;97259.38;;;17.11;91.12
75008;BME280;63554;48.940;12.050;2023-09-19T07:52:25;97273.81;;;17.07;91.18
75008;BME280;63554;48.940;12.050;2023-09-19T07:56:29;97266.78;;;17.16;90.09
75008;BME280;63554;48.940;12.050;2023-09-19T08:00:33;97274.06;;;17.00;89.06
75008;BME280;63554;48.940;12.050;2023-09-19T08:04:38;97273.09;;;17.27;88.90
75008;BME280;63554;48.940;12.050;2023-09-19T08:08:41;97264.59;;;17.18;89.40
75008;BME280;63554;48.940;12.050;2023-09-19T08:12:46;97270.09;;;17.23;89.14
75008;BME280;63554;48.940;12.050;2023-09-19T08:16:48;97285.66;;;17.23;86.44
75008;BME280;63554;48.940;12.050;2023-09-19T08:20:53;97278.31;;;17.23;82.52
75008;BME280;63554;48.940;12.050;2023-09-19T08:24:55;97286.78;;;17.74;79.87
75008;BME280;63554;48.940;12.050;2023-09-19T08:28:59;97284.38;;;17.88;81.80
75008;BME280;63554;48.940;12.050;2023-09-19T08:33:07;97284.47;;;18.19;79.22
75008;BME280;63554;48.940;12.050;2023-09-19T08:37:11;97277.31;;;17.97;79.41
75008;BME280;63554;48.940;12.050;2023-09-19T08:41:17;97289.06;;;17.88;80.17
75008;BME280;63554;48.940;12.050;2023-09-19T08:45:20;97281.66;;;17.88;79.46
75008;BME280;63554;48.940;12.050;2023-09-19T08:49:32;97288.75;;;17.89;80.92
75008;BME280;63554;48.940;12.050;2023-09-19T08:53:42;97284.91;;;17.85;81.64
75008;BME280;63554;48.940;12.050;2023-09-19T08:57:49;97287.41;;;17.92;79.97
75008;BME280;63554;48.940;12.050;2023-09-19T09:01:53;97293.47;;;18.04;79.96
75008;BME280;63554;48.940;12.050;2023-09-19T09:05:56;97298.66;;;18.01;77.87
75008;BME280;63554;48.940;12.050;2023-09-19T09:10:02;97300.88;;;18.09;78.67
75008;BME280;63554;48.940;12.050;2023-09-19T09:14:05;97309.31;;;17.92;78.98
75008;BME280;63554;48.940;12.050;2023-09-19T09:18:08;97310.41;;;17.86;79.05
75008;BME280;63554;48.940;12.050;2023-09-19T09:22:11;97311.16;;;17.81;79.93
75008;BME280;63554;48.940;12.050;2023-09-19T09:26:15;97321.81;;;17.77;78.74
75008;BME280;63554;48.940;12.050;2023-09-19T09:30:32;97319.41;;;17.33;78.83
75008;BME280;63554;48.940;12.050;2023-09-19T09:34:35;97344.31;;;16.99;80.11
75008;BME280;63554;48.940;12.050;2023-09-19T09:38:45;97358.97;;;16.34;83.27
75008;BME280;63554;48.940;12.050;2023-09-19T09:42:51;97356.53;;;15.88;87.57
75008;BME280;63554;48.940;12.050;2023-09-19T09:46:58;97377.84;;;15.52;88.67
75008;BME280;63554;48.940;12.050;2023-09-19T09:51:29;97361.38;;;15.25;92.15
75008;BME280;63554;48.940;12.050;2023-09-19T09:56:00;97360.94;;;15.16;94.33
75008;BME280;63554;48.940;12.050;2023-09-19T10:00:06;97376.22;;;15.34;95.70
75008;BME280;63554;48.940;12.050;2023-09-19T10:04:27;97380.94;;;15.22;96.96
75008;BME280;63554;48.940;12.050;2023-09-19T10:08:33;97369.22;;;15.21;96.97
75008;BME280;63554;48.940;12.050;2023-09-19T10:12:43;97371.84;;;15.33;94.69
75008;BME280;63554;48.940;12.050;2023-09-19T10:16:53;97369.19;;;15.38;94.97
75008;BME280;63554;48.940;12.050;2023-09-19T10:21:02;97384.72;;;15.55;96.25
75008;BME280;63554;48.940;12.050;2023-09-19T10:25:08;97384.94;;;15.53;95.86
75008;BME280;63554;48.940;12.050;2023-09-19T10:29:13;97391.88;;;15.61;96.91
75008;BME280;63554;48.940;12.050;2023-09-19T10:33:20;97384.19;;;15.75;95.36
75008;BME280;63554;48.940;12.050;2023-09-19T10:37:24;97396.34;;;15.84;92.15
75008;BME280;63554;48.940;12.050;2023-09-19T10:41:31;97378.41;;;15.93;90.03
75008;BME280;63554;48.940;12.050;2023-09-19T10:45:35;97372.91;;;16.10;88.83
75008;BME280;63554;48.940;12.050;2023-09-19T10:49:44;97376.72;;;16.58;88.05
75008;BME280;63554;48.940;12.050;2023-09-19T10:53:52;97372.09;;;16.86;86.32
75008;BME280;63554;48.940;12.050;2023-09-19T10:57:56;97379.31;;;17.03;85.24
75008;BME280;63554;48.940;12.050;2023-09-19T11:02:16;97376.72;;;17.18;84.86
75008;BME280;63554;48.940;12.050;2023-09-19T11:06:21;97375.66;;;17.24;80.92
75008;BME280;63554;48.940;12.050;2023-09-19T11:10:46;97377.78;;;17.17;81.41
75008;BME280;63554;48.940;12.050;2023-09-19T11:14:49;97374.22;;;17.11;82.66
75008;BME280;63554;48.940;12.050;2023-09-19T11:18:54;97368.69;;;17.44;81.33
75008;BME280;63554;48.940;12.050;2023-09-19T11:23:23;97376.28;;;17.79;78.42
75008;BME280;63554;48.940;12.050;2023-09-19T11:27:29;97381.69;;;18.16;78.11
75008;BME280;63554;48.940;12.050;2023-09-19T11:31:44;97372.97;;;18.30;75.19
75008;BME280;63554;48.940;12.050;2023-09-19T11:36:02;97356.34;;;18.57;75.81
75008;BME280;63554;48.940;12.050;2023-09-19T11:40:07;97360.81;;;18.84;74.10
75008;BME280;63554;48.940;12.050;2023-09-19T11:44:35;97355.03;;;18.80;71.10
75008;BME280;63554;48.940;12.050;2023-09-19T11:48:40;97360.53;;;18.80;73.76
75008;BME280;63554;48.940;12.050;2023-09-19T11:52:45;97344.34;;;18.99;71.65
75008;BME280;63554;48.940;12.050;2023-09-19T11:56:52;97338.84;;;19.25;69.73
75008;BME280;63554;48.940;12.050;2023-09-19T12:00:56;97333.59;;;19.44;69.77
75008;BME280;63554;48.940;12.050;2023-09-19T12:05:01;97324.47;;;19.84;66.82
75008;BME280;63554;48.940;12.050;2023-09-19T12:09:04;97337.16;;;20.30;63.86
75008;BME280;63554;48.940;12.050;2023-09-19T12:13:16;97330.63;;;20.70;61.54
75008;BME280;63554;48.940;12.050;2023-09-19T12:17:19;97339.59;;;20.86;59.34
75008;BME280;63554;48.940;12.050;2023-09-19T12:21:25;97330.03;;;21.13;59.63
75008;BME280;63554;48.940;12.050;2023-09-19T12:25:40;97328.66;;;21.10;57.24
75008;BME280;63554;48.940;12.050;2023-09-19T12:29:47;97317.41;;;21.07;55.95
75008;BME280;63554;48.940;12.050;2023-09-19T12:33:53;97326.03;;;21.24;56.83
75008;BME280;63554;48.940;12.050;2023-09-19T12:37:56;97313.56;;;21.37;55.23
75008;BME280;63554;48.940;12.050;2023-09-19T12:41:59;97314.06;;;21.39;53.90
75008;BME280;63554;48.940;12.050;2023-09-19T12:46:06;97314.22;;;20.94;54.47
75008;BME280;63554;48.940;12.050;2023-09-19T12:50:11;97306.19;;;20.59;56.47
75008;BME280;63554;48.940;12.050;2023-09-19T12:54:19;97312.56;;;20.93;57.04
75008;BME280;63554;48.940;12.050;2023-09-19T12:58:23;97301.94;;;21.11;55.86
75008;BME280;63554;48.940;12.050;2023-09-19T13:02:27;97305.16;;;20.49;57.69
75008;BME280;63554;48.940;12.050;2023-09-19T13:06:35;97308.38;;;21.01;56.52
75008;BME280;63554;48.940;12.050;2023-09-19T13:11:04;97303.63;;;21.36;55.14
75008;BME280;63554;48.940;12.050;2023-09-19T13:15:13;97309.09;;;21.46;53.84
75008;BME280;63554;48.940;12.050;2023-09-19T13:19:40;97290.47;;;21.62;54.28
75008;BME280;63554;48.940;12.050;2023-09-19T13:23:43;97293.84;;;21.54;53.07
75008;BME280;63554;48.940;12.050;2023-09-19T13:27:47;97299.03;;;20.97;56.28
75008;BME280;63554;48.940;12.050;2023-09-19T13:31:52;97293.25;;;21.28;54.18
75008;BME280;63554;48.940;12.050;2023-09-19T13:35:57;97298.44;;;21.35;54.27
75008;BME280;63554;48.940;12.050;2023-09-19T13:39:59;97289.88;;;22.33;52.62
75008;BME280;63554;48.940;12.050;2023-09-19T13:44:02;97290.25;;;22.02;52.27
75008;BME280;63554;48.940;12.050;2023-09-19T13:48:06;97293.75;;;22.31;52.21
75008;BME280;63554;48.940;12.050;2023-09-19T13:52:10;97283.63;;;22.22;51.08
75008;BME280;63554;48.940;12.050;2023-09-19T13:56:14;97287.22;;;22.22;50.47
75008;BME280;63554;48.940;12.050;2023-09-19T14:00:17;97282.75;;;22.07;51.83
75008;BME280;63554;48.940;12.050;2023-09-19T14:04:20;97278.84;;;22.33;51.58
75008;BME280;63554;48.940;12.050;2023-09-19T14:08:24;97275.50;;;22.11;51.18
75008;BME280;63554;48.940;12.050;2023-09-19T14:12:27;97277.47;;;22.30;50.70
75008;BME280;63554;48.940;12.050;2023-09-19T14:16:30;97274.69;;;22.11;50.34
75008;BME280;63554;48.940;12.050;2023-09-19T14:20:37;97284.59;;;21.69;49.73
75008;BME280;63554;48.940;12.050;2023-09-19T14:24:42;97284.34;;;21.36;49.81
75008;BME280;63554;48.940;12.050;2023-09-19T14:28:45;97274.69;;;21.44;50.68
75008;BME280;63554;48.940;12.050;2023-09-19T14:32:48;97265.16;;;21.60;51.31
75008;BME280;63554;48.940;12.050;2023-09-19T14:36:50;97267.94;;;21.55;51.58
75008;BME280;63554;48.940;12.050;2023-09-19T14:41:00;97255.44;;;21.39;51.70
75008;BME280;63554;48.940;12.050;2023-09-19T14:45:07;97257.28;;;21.48;52.92
75008;BME280;63554;48.940;12.050;2023-09-19T14:49:10;97251.19;;;21.51;50.90
75008;BME280;63554;48.940;12.050;2023-09-19T14:53:13;97259.13;;;21.77;50.61
75008;BME280;63554;48.940;12.050;2023-09-19T14:57:17;97249.72;;;21.59;50.83
75008;BME280;63554;48.940;12.050;2023-09-19T15:01:20;97249.75;;;21.30;52.09
75008;BME280;63554;48.940;12.050;2023-09-19T15:05:23;97242.69;;;21.72;51.41
75008;BME280;63554;48.940;12.050;2023-09-19T15:09:26;97248.97;;;21.53;51.40
75008;BME280;63554;48.940;12.050;2023-09-19T15:13:31;97247.03;;;21.78;49.96
75008;BME280;63554;48.940;12.050;2023-09-19T15:17:35;97244.03;;;21.75;50.08
75008;BME280;63554;48.940;12.050;2023-09-19T15:21:38;97242.16;;;21.70;49.87
75008;BME280;63554;48.940;12.050;2023-09-19T15:25:47;97253.38;;;21.55;49.90
75008;BME280;63554;48.940;12.050;2023-09-19T15:29:51;97247.84;;;21.55;51.48
75008;BME280;63554;48.940;12.050;2023-09-19T15:33:54;97246.06;;;21.64;51.75
75008;BME280;63554;48.940;12.050;2023-09-19T15:37:57;97239.75;;;22.06;50.91
75008;BME280;63554;48.940;12.050;2023-09-19T15:42:00;97244.88;;;21.94;49.84
75008;BME280;63554;48.940;12.050;2023-09-19T15:46:04;97241.41;;;21.83;49.66
75008;BME280;63554;48.940;12.050;2023-09-19T15:50:08;97238.16;;;21.81;50.15
75008;BME280;63554;48.940;12.050;2023-09-19T15:54:13;97234.91;;;21.98;50.59
75008;BME280;63554;48.940;12.050;2023-09-19T15:58:16;97236.16;;;21.87;49.79
75008;BME280;63554;48.940;12.050;2023-09-19T16:02:20;97236.44;;;21.85;50.56
75008;BME280;63554;48.940;12.050;2023-09-19T16:06:24;97229.66;;;21.78;49.82
75008;BME280;63554;48.940;12.050;2023-09-19T16:10:28;97227.13;;;21.62;50.69
75008;BME280;63554;48.940;12.050;2023-09-19T16:14:30;97236.47;;;21.37;52.17
75008;BME280;63554;48.940;12.050;2023-09-19T16:18:35;97237.25;;;21.67;51.74
75008;BME280;63554;48.940;12.050;2023-09-19T16:22:40;97234.53;;;21.62;51.78
75008;BME280;63554;48.940;12.050;2023-09-19T16:26:43;97237.72;;;21.74;51.36
75008;BME280;63554;48.940;12.050;2023-09-19T16:30:46;97236.22;;;21.82;51.60
75008;BME280;63554;48.940;12.050;2023-09-19T16:34:50;97234.84;;;21.60;51.48
75008;BME280;63554;48.940;12.050;2023-09-19T16:38:53;97230.59;;;21.20;53.12
75008;BME280;63554;48.940;12.050;2023-09-19T16:42:56;97237.97;;;20.95;53.93
75008;BME280;63554;48.940;12.050;2023-09-19T16:46:59;97244.75;;;20.79;55.00
75008;BME280;63554;48.940;12.050;2023-09-19T16:51:08;97236.50;;;20.79;56.37
75008;BME280;63554;48.940;12.050;2023-09-19T16:55:11;97242.28;;;20.77;56.95
75008;BME280;63554;48.940;12.050;2023-09-19T16:59:31;97232.81;;;20.59;58.61
75008;BME280;63554;48.940;12.050;2023-09-19T17:03:33;97239.78;;;20.41;59.75
75008;BME280;63554;48.940;12.050;2023-09-19T17:07:38;97240.16;;;20.24;60.48
75008;BME280;63554;48.940;12.050;2023-09-19T17:11:41;97237.25;;;20.10;61.32
75008;BME280;63554;48.940;12.050;2023-09-19T17:15:44;97251.94;;;19.85;61.64
75008;BME280;63554;48.940;12.050;2023-09-19T17:19:46;97252.06;;;19.54;63.60
75008;BME280;63554;48.940;12.050;2023-09-19T17:23:50;97259.28;;;19.14;65.08
75008;BME280;63554;48.940;12.050;2023-09-19T17:27:55;97246.41;;;18.64;66.64
75008;BME280;63554;48.940;12.050;2023-09-19T17:31:58;97254.63;;;18.48;67.41
75008;BME280;63554;48.940;12.050;2023-09-19T17:36:14;97253.56;;;18.39;68.44
75008;BME280;63554;48.940;12.050;2023-09-19T17:40:24;97248.88;;;18.34;67.92
75008;BME280;63554;48.940;12.050;2023-09-19T17:44:27;97251.63;;;18.29;67.75
75008;BME280;63554;48.940;12.050;2023-09-19T17:48:36;97255.44;;;18.28;68.60
75008;BME280;63554;48.940;12.050;2023-09-19T17:52:42;97259.81;;;18.14;69.10
75008;BME280;63554;48.940;12.050;2023-09-19T17:56:47;97257.56;;;17.90;70.13
75008;BME280;63554;48.940;12.050;2023-09-19T18:00:50;97256.88;;;17.68;70.96
75008;BME280;63554;48.940;12.050;2023-09-19T18:04:53;97256.00;;;17.47;71.85
75008;BME280;63554;48.940;12.050;2023-09-19T18:08:58;97260.00;;;17.29;73.29
75008;BME280;63554;48.940;12.050;2023-09-19T18:13:05;97275.22;;;17.14;73.56
75008;BME280;63554;48.940;12.050;2023-09-19T18:17:15;97283.97;;;17.11;73.79
75008;BME280;63554;48.940;12.050;2023-09-19T18:21:19;97287.75;;;17.05;74.09
75008;BME280;63554;48.940;12.050;2023-09-19T18:25:22;97304.09;;;16.95;74.56
75008;BME280;63554;48.940;12.050;2023-09-19T18:29:27;97293.06;;;16.85;74.78
75008;BME280;63554;48.940;12.050;2023-09-19T18:33:30;97298.44;;;16.74;75.23
75008;BME280;63554;48.940;12.050;2023-09-19T18:37:33;97305.97;;;16.62;75.52
75008;BME280;63554;48.940;12.050;2023-09-19T18:41:37;97306.69;;;16.52;75.99
75008;BME280;63554;48.940;12.050;2023-09-19T18:45:41;97301.19;;;16.47;75.22
75008;BME280;63554;48.940;12.050;2023-09-19T18:49:45;97323.53;;;16.39;76.45
75008;BME280;63554;48.940;12.050;2023-09-19T18:53:49;97319.53;;;16.25;77.70
75008;BME280;63554;48.940;12.050;2023-09-19T18:58:12;97320.47;;;16.08;78.38
75008;BME280;63554;48.940;12.050;2023-09-19T19:02:16;97318.50;;;16.04;78.67
75008;BME280;63554;48.940;12.050;2023-09-19T19:06:21;97326.88;;;15.97;78.89
75008;BME280;63554;48.940;12.050;2023-09-19T19:10:24;97328.34;;;15.82;80.26
75008;BME280;63554;48.940;12.050;2023-09-19T19:14:27;97331.63;;;15.62;80.75
75008;BME280;63554;48.940;12.050;2023-09-19T19:18:31;97327.34;;;15.50;81.46
75008;BME280;63554;48.940;12.050;2023-09-19T19:22:34;97325.63;;;15.43;81.62
75008;BME280;63554;48.940;12.050;2023-09-19T19:26:38;97326.88;;;15.36;82.74
75008;BME280;63554;48.940;12.050;2023-09-19T19:30:43;97331.44;;;15.30;83.38
75008;BME280;63554;48.940;12.050;2023-09-19T19:34:47;97325.06;;;15.25;83.92
75008;BME280;63554;48.940;12.050;2023-09-19T19:38:50;97341.44;;;15.25;84.21
75008;BME280;63554;48.940;12.050;2023-09-19T19:42:54;97340.53;;;15.19;83.86
75008;BME280;63554;48.940;12.050;2023-09-19T19:46:57;97341.47;;;15.08;83.95
75008;BME280;63554;48.940;12.050;2023-09-19T19:51:05;97347.75;;;15.08;85.14
75008;BME280;63554;48.940;12.050;2023-09-19T19:55:10;97339.47;;;15.03;86.08
75008;BME280;63554;48.940;12.050;2023-09-19T19:59:13;97350.31;;;14.98;86.59
75008;BME280;63554;48.940;12.050;2023-09-19T20:03:15;97361.03;;;14.88;84.96
75008;BME280;63554;48.940;12.050;2023-09-19T20:07:20;97360.22;;;14.70;84.57
75008;BME280;63554;48.940;12.050;2023-09-19T20:11:24;97361.78;;;14.54;84.52
75008;BME280;63554;48.940;12.050;2023-09-19T20:15:30;97353.44;;;14.44;85.71
75008;BME280;63554;48.940;12.050;2023-09-19T20:19:35;97361.44;;;14.34;86.81
75008;BME280;63554;48.940;12.050;2023-09-19T20:23:39;97356.78;;;14.34;87.77
75008;BME280;63554;48.940;12.050;2023-09-19T20:27:43;97354.91;;;14.35;88.54
75008;BME280;63554;48.940;12.050;2023-09-19T20:31:45;97353.03;;;14.35;89.52
75008;BME280;63554;48.940;12.050;2023-09-19T20:35:48;97361.66;;;14.32;90.33
75008;BME280;63554;48.940;12.050;2023-09-19T20:39:52;97356.13;;;14.27;90.18
75008;BME280;63554;48.940;12.050;2023-09-19T20:43:55;97362.53;;;14.21;87.80
75008;BME280;63554;48.940;12.050;2023-09-19T20:47:58;97362.69;;;14.14;87.92
75008;BME280;63554;48.940;12.050;2023-09-19T20:52:01;97366.03;;;14.04;88.80
75008;BME280;63554;48.940;12.050;2023-09-19T20:56:06;97364.50;;;13.97;89.84
75008;BME280;63554;48.940;12.050;2023-09-19T21:00:09;97368.06;;;13.97;90.92
75008;BME280;63554;48.940;12.050;2023-09-19T21:04:12;97369.59;;;13.93;89.96
75008;BME280;63554;48.940;12.050;2023-09-19T21:08:15;97371.66;;;13.86;89.21
75008;BME280;63554;48.940;12.050;2023-09-19T21:12:19;97375.34;;;13.80;89.33
75008;BME280;63554;48.940;12.050;2023-09-19T21:16:22;97373.56;;;13.74;90.54